Time;durP1;ratioP1;P1;durP2;ratioP2;P2;SDS_P1;SDS_P2;PMS_P1;PMS_P2;Temp;Humidity;BMP_temperature;BMP_pressure;BME280_temperature;BME280_humidity;BME280_pressure;Samples;Min_cycle;Max_cycle;Signal;HPM_P1;HPM_P2
2023/11/25 00:01:12;;;;;;;1.00;0.13;;;;;;;4.71;68.89;99579.63;10312256;28;20506;-82
2023/11/25 00:06:14;;;;;;;1.48;0.13;;;;;;;4.70;68.72;99585.13;10321637;28;20061;-82
2023/11/25 00:11:16;;;;;;;0.85;0.13;;;;;;;4.70;68.66;99579.78;10305012;28;20053;-82
2023/11/25 00:16:30;;;;;;;4.70;0.40;;;;;;;4.69;68.11;99594.94;10312750;28;20085;-82
2023/11/25 00:21:32;;;;;;;1.05;0.10;;;;;;;4.64;68.56;99599.91;10306483;28;20302;-82
2023/11/25 00:26:33;;;;;;;0.68;0.10;;;;;;;4.63;68.96;99605.38;10314955;28;20053;-83
2023/11/25 00:31:35;;;;;;;2.30;0.20;;;;;;;4.63;68.53;99610.72;10320346;28;20569;-83
2023/11/25 00:36:36;;;;;;;0.38;0.38;;;;;;;4.63;68.30;99619.53;10320334;28;20074;-82
2023/11/25 00:41:38;;;;;;;3.00;0.30;;;;;;;4.64;68.02;99615.88;10309123;28;20054;-82
2023/11/25 00:46:40;;;;;;;10.80;0.35;;;;;;;4.64;68.10;99633.66;10322407;28;20043;-82
2023/11/25 00:51:42;;;;;;;0.45;0.17;;;;;;;4.63;68.32;99640.00;10318575;28;20046;-82
2023/11/25 00:56:43;;;;;;;2.67;0.40;;;;;;;4.63;68.09;99647.97;10311978;28;20050;-82
2023/11/25 01:01:45;;;;;;;1.38;0.13;;;;;;;4.65;68.06;99646.00;10321811;28;20101;-82
2023/11/25 01:06:47;;;;;;;2.08;0.25;;;;;;;4.65;68.08;99667.28;10319478;28;20059;-82
2023/11/25 01:11:49;;;;;;;3.40;0.20;;;;;;;4.68;67.86;99669.63;10318978;28;20081;-82
2023/11/25 01:16:50;;;;;;;3.03;1.05;;;;;;;4.68;67.66;99666.97;10319041;28;20047;-82
2023/11/25 01:21:52;;;;;;;3.15;0.28;;;;;;;4.70;67.58;99675.63;10320216;28;20054;-82
2023/11/25 01:26:54;;;;;;;5.40;0.30;;;;;;;4.70;67.48;99686.28;10317859;28;20173;-82
2023/11/25 01:31:56;;;;;;;2.05;0.43;;;;;;;4.70;67.40;99678.28;10326651;28;20530;-82
2023/11/25 01:36:57;;;;;;;5.70;0.40;;;;;;;4.70;67.57;99691.59;10311356;28;20561;-82
2023/11/25 01:41:59;;;;;;;2.15;0.28;;;;;;;4.67;67.70;99700.75;10324888;28;20073;-82
2023/11/25 01:47:01;;;;;;;2.17;0.40;;;;;;;4.67;67.29;99705.22;10325125;28;20129;-82
2023/11/25 01:52:05;;;;;;;14.77;0.75;;;;;;;4.65;67.52;99717.88;10321294;28;20046;-81
2023/11/25 01:57:08;;;;;;;1.45;0.20;;;;;;;4.60;67.38;99725.47;10328066;28;20042;-81
2023/11/25 02:02:14;;;;;;;2.47;0.60;;;;;;;4.59;67.43;99727.28;10323685;28;20054;-81
2023/11/25 02:07:16;;;;;;;6.13;0.75;;;;;;;4.54;67.48;99737.53;10324804;28;20085;-81
2023/11/25 02:12:18;;;;;;;2.85;0.40;;;;;;;4.53;67.27;99744.69;10324064;28;20046;-81
2023/11/25 02:17:21;;;;;;;1.83;0.30;;;;;;;4.55;67.30;99736.56;10329805;28;20066;-81
2023/11/25 02:22:22;;;;;;;7.40;0.40;;;;;;;4.51;67.74;99738.69;10324820;28;20054;-81
2023/11/25 02:27:26;;;;;;;5.15;0.30;;;;;;;4.49;67.32;99735.34;10326999;28;20050;-81
2023/11/25 02:32:28;;;;;;;3.63;0.65;;;;;;;4.49;67.36;99743.34;10310608;28;20049;-82
2023/11/25 02:37:30;;;;;;;2.97;0.77;;;;;;;4.47;67.65;99745.31;10328850;28;20058;-81
2023/11/25 02:42:31;;;;;;;2.33;0.40;;;;;;;4.46;67.15;99756.94;10315534;28;20057;-81
2023/11/25 02:47:33;;;;;;;2.13;0.35;;;;;;;4.49;67.38;99763.78;10326833;28;20055;-80
2023/11/25 02:52:35;;;;;;;3.17;0.30;;;;;;;4.50;67.68;99762.78;10322942;28;20133;-80
2023/11/25 02:57:43;;;;;;;3.20;0.60;;;;;;;4.44;67.35;99771.38;10323831;28;20054;-80
2023/11/25 03:02:49;;;;;;;3.13;0.45;;;;;;;4.40;67.70;99770.00;10316187;28;20058;-81
2023/11/25 03:07:51;;;;;;;1.30;0.30;;;;;;;4.44;67.89;99766.88;10324828;28;20042;-81
2023/11/25 03:12:53;;;;;;;1.38;0.30;;;;;;;4.48;67.51;99772.75;10305643;28;20466;-81
2023/11/25 03:17:55;;;;;;;3.00;0.32;;;;;;;4.59;66.82;99785.84;10323093;28;20569;-81
2023/11/25 03:22:57;;;;;;;6.45;0.60;;;;;;;4.59;66.67;99793.00;10336004;28;20058;-81
2023/11/25 03:28:04;;;;;;;4.95;0.20;;;;;;;4.68;66.83;99789.41;10310549;28;20046;-81
2023/11/25 03:33:06;;;;;;;0.83;0.33;;;;;;;4.80;67.15;99806.84;10319838;28;20142;-80
2023/11/25 03:38:08;;;;;;;4.10;0.30;;;;;;;4.83;66.64;99803.03;10319522;28;20050;-81
2023/11/25 03:43:10;;;;;;;0.95;0.22;;;;;;;4.86;66.81;99816.91;10322483;28;20058;-81
2023/11/25 03:48:11;;;;;;;4.03;0.32;;;;;;;4.85;66.83;99820.53;10324812;28;20060;-81
2023/11/25 03:53:13;;;;;;;2.90;0.30;;;;;;;4.85;66.81;99815.22;10320866;28;20058;-81
2023/11/25 03:58:15;;;;;;;2.75;0.35;;;;;;;4.77;67.05;99821.28;10326029;28;20121;-81
2023/11/25 04:03:17;;;;;;;9.30;0.73;;;;;;;4.85;66.89;99817.88;10306630;28;20069;-81
2023/11/25 04:08:18;;;;;;;7.07;0.98;;;;;;;4.85;67.25;99833.03;10308994;28;20059;-81
2023/11/25 04:13:20;;;;;;;3.63;0.80;;;;;;;4.87;67.60;99831.88;10317255;28;20502;-81
2023/11/25 04:18:22;;;;;;;2.05;1.02;;;;;;;4.80;67.64;99836.16;10319064;28;20065;-81
2023/11/25 04:23:24;;;;;;;1.40;0.40;;;;;;;4.80;68.27;99841.47;10319082;28;20120;-81
2023/11/25 04:28:27;;;;;;;5.78;0.43;;;;;;;4.82;67.11;99851.94;10322089;28;20124;-81
2023/11/25 04:33:29;;;;;;;4.80;0.40;;;;;;;4.79;67.18;99842.44;10299226;28;20070;-81
2023/11/25 04:38:31;;;;;;;2.75;0.68;;;;;;;4.77;67.60;99849.75;10302258;28;20394;-81
2023/11/25 04:43:32;;;;;;;3.30;0.60;;;;;;;4.73;67.83;99843.06;10319470;28;20091;-81
2023/11/25 04:48:34;;;;;;;3.70;0.93;;;;;;;4.67;67.65;99831.19;10316487;28;20125;-81
2023/11/25 04:53:36;;;;;;;7.18;0.47;;;;;;;4.67;67.75;99833.00;10317125;28;20077;-80
2023/11/25 04:58:39;;;;;;;6.45;0.75;;;;;;;4.71;67.53;99840.53;10299515;28;20053;-81
2023/11/25 05:03:41;;;;;;;2.60;0.60;;;;;;;4.68;67.42;99837.34;10317638;28;20465;-81
2023/11/25 05:08:45;;;;;;;2.80;0.60;;;;;;;4.81;67.19;99839.63;10314449;28;20057;-81
2023/11/25 05:13:46;;;;;;;3.00;1.13;;;;;;;4.88;67.40;99838.06;10328879;28;20493;-81
2023/11/25 05:18:48;;;;;;;3.83;1.17;;;;;;;4.91;67.19;99838.56;10322168;28;20050;-81
2023/11/25 05:23:50;;;;;;;5.43;1.10;;;;;;;4.97;66.94;99823.81;10305807;28;20074;-81
2023/11/25 05:28:51;;;;;;;3.58;0.95;;;;;;;5.09;67.56;99819.06;10326301;28;20038;-82
2023/11/25 05:33:53;;;;;;;4.50;1.17;;;;;;;4.93;67.78;99820.59;10324576;28;20113;-81
2023/11/25 05:38:55;;;;;;;4.35;1.25;;;;;;;4.86;68.23;99827.56;10307629;28;20137;-81
2023/11/25 05:43:57;;;;;;;6.15;2.03;;;;;;;4.82;67.98;99817.34;10310799;28;20449;-82
2023/11/25 05:48:59;;;;;;;6.60;2.70;;;;;;;4.77;67.71;99820.47;10325169;28;20691;-82
2023/11/25 05:54:00;;;;;;;7.78;2.00;;;;;;;4.76;68.17;99816.13;10326562;28;20061;-80
2023/11/25 05:59:03;;;;;;;7.25;2.72;;;;;;;4.76;67.85;99819.63;10308315;28;20038;-82
2023/11/25 06:04:06;;;;;;;7.63;2.63;;;;;;;4.77;68.23;99826.63;10322132;28;20137;-82
2023/11/25 06:09:11;;;;;;;10.20;2.70;;;;;;;4.77;67.84;99818.63;10308585;28;20133;-83
2023/11/25 06:14:15;;;;;;;12.00;2.25;;;;;;;4.79;68.09;99818.47;10327966;28;20462;-82
2023/11/25 06:19:18;;;;;;;7.72;2.50;;;;;;;4.81;67.36;99813.84;10331878;28;20536;-83
2023/11/25 06:24:20;;;;;;;12.48;2.70;;;;;;;4.82;67.70;99815.53;10328399;28;20062;-82
2023/11/25 06:29:22;;;;;;;11.90;2.78;;;;;;;4.85;67.80;99823.19;10328017;28;20047;-83
2023/11/25 06:34:24;;;;;;;9.00;2.30;;;;;;;4.81;67.17;99811.19;10326350;28;20046;-81
2023/11/25 06:39:25;;;;;;;8.55;3.00;;;;;;;4.82;67.47;99817.34;10312112;28;20058;-82
2023/11/25 06:44:27;;;;;;;8.38;2.20;;;;;;;4.87;66.82;99825.72;10310285;28;20057;-81
2023/11/25 06:49:29;;;;;;;7.57;1.40;;;;;;;4.91;66.98;99824.41;10337402;28;20034;-80
2023/11/25 06:54:31;;;;;;;10.77;1.75;;;;;;;5.03;66.53;99825.84;10338960;28;20050;-85
2023/11/25 06:59:33;;;;;;;5.57;1.67;;;;;;;5.08;66.85;99830.75;10309796;28;20104;-84
2023/11/25 07:04:36;;;;;;;7.05;2.70;;;;;;;5.12;66.34;99842.75;10309444;28;20064;-85
2023/11/25 07:09:37;;;;;;;7.63;2.63;;;;;;;5.13;66.53;99841.75;10322160;28;20054;-85
2023/11/25 07:14:40;;;;;;;11.18;3.08;;;;;;;5.21;66.52;99838.31;10321739;28;20108;-85
2023/11/25 07:19:42;;;;;;;11.43;1.88;;;;;;;5.35;66.26;99830.63;10330862;28;20074;-84
2023/11/25 07:24:46;;;;;;;7.28;1.83;;;;;;;5.42;66.52;99835.34;10325004;28;20084;-86
2023/11/25 07:29:49;;;;;;;7.38;1.52;;;;;;;5.55;65.97;99849.09;10333605;28;20111;-86
2023/11/25 07:34:50;;;;;;;10.73;2.05;;;;;;;5.61;66.14;99842.28;10355376;28;20108;-84
2023/11/25 07:39:53;;;;;;;10.20;1.75;;;;;;;5.56;66.75;99856.09;10345394;28;20050;-84
2023/11/25 07:44:54;;;;;;;10.00;1.25;;;;;;;5.63;67.14;99851.81;10355998;28;20057;-86
2023/11/25 07:49:56;;;;;;;15.95;2.63;;;;;;;5.75;67.05;99845.22;10344067;28;20054;-83
2023/11/25 07:54:58;;;;;;;11.60;2.38;;;;;;;6.01;66.31;99828.38;10324106;28;20114;-84
2023/11/25 07:59:59;;;;;;;8.00;2.33;;;;;;;6.26;66.24;99833.81;10319700;28;20080;-86
2023/11/25 08:05:03;;;;;;;11.40;1.50;;;;;;;6.41;66.37;99844.72;10359757;23;20058;-66
2023/11/25 08:10:07;;;;;;;10.82;1.52;;;;;;;6.52;66.80;99828.44;10317415;28;20510;-65
2023/11/25 08:15:09;;;;;;;10.25;2.38;;;;;;;6.70;65.67;99838.97;10295637;28;20050;-62
2023/11/25 08:20:11;;;;;;;12.30;1.88;;;;;;;6.65;66.65;99839.44;10313355;28;20061;-63
2023/11/25 08:25:12;;;;;;;9.20;1.80;;;;;;;6.59;66.33;99836.59;10319100;28;20141;-63
2023/11/25 08:30:14;;;;;;;9.65;2.65;;;;;;;6.68;66.06;99841.81;10316312;28;20054;-63
2023/11/25 08:35:16;;;;;;;11.00;2.22;;;;;;;6.67;66.31;99840.13;10316302;28;20054;-64
2023/11/25 08:40:21;;;;;;;11.63;3.30;;;;;;;6.59;66.03;99839.28;10295158;28;20410;-65
2023/11/25 08:45:24;;;;;;;7.63;2.40;;;;;;;6.64;66.23;99835.13;10313693;28;20050;-65
2023/11/25 08:50:25;;;;;;;13.38;2.05;;;;;;;6.64;66.57;99828.97;10315130;28;20050;-64
2023/11/25 08:55:27;;;;;;;7.72;1.73;;;;;;;6.75;66.23;99826.81;10316492;28;20051;-64
2023/11/25 09:00:29;;;;;;;8.55;2.03;;;;;;;6.64;66.26;99829.78;10284782;28;20055;-65
2023/11/25 09:05:31;;;;;;;12.80;1.50;;;;;;;6.65;66.85;99822.59;10255622;28;20043;-64
2023/11/25 09:10:34;;;;;;;13.93;1.85;;;;;;;6.66;66.64;99816.28;10259922;28;20097;-64
2023/11/25 09:15:37;;;;;;;6.53;1.30;;;;;;;6.69;66.34;99835.44;10258381;28;20769;-65
2023/11/25 09:20:42;;;;;;;9.40;2.08;;;;;;;6.67;66.16;99829.44;10258035;28;20059;-64
2023/11/25 09:25:44;;;;;;;5.55;1.00;;;;;;;6.51;67.19;99818.72;10288380;28;20058;-62
2023/11/25 09:30:46;;;;;;;13.65;1.13;;;;;;;6.42;67.42;99822.34;10304030;28;20119;-62
2023/11/25 09:35:48;;;;;;;8.63;1.17;;;;;;;6.28;67.29;99829.16;10308461;28;20054;-63
2023/11/25 09:40:49;;;;;;;6.07;0.70;;;;;;;6.32;67.38;99814.53;10307306;28;20049;-63
2023/11/25 09:45:52;;;;;;;7.63;0.70;;;;;;;6.63;67.09;99822.75;10312936;28;20063;-63
2023/11/25 09:50:54;;;;;;;4.60;0.63;;;;;;;6.70;67.12;99820.28;10314127;28;20082;-62
2023/11/25 09:56:04;;;;;;;8.32;1.27;;;;;;;6.88;67.22;99820.97;10317611;28;20034;-63
2023/11/25 10:01:06;;;;;;;3.08;0.57;;;;;;;6.81;67.60;99816.44;10320179;28;20114;-62
2023/11/25 10:06:08;;;;;;;6.57;1.67;;;;;;;6.81;67.46;99822.63;10306988;28;20043;-63
2023/11/25 10:11:14;;;;;;;17.33;1.75;;;;;;;6.81;68.06;99816.44;10281039;28;20050;-63
2023/11/25 10:16:29;;;;;;;9.23;0.85;;;;;;;6.71;67.55;99811.25;10263060;28;20115;-62
2023/11/25 10:21:35;;;;;;;4.93;0.80;;;;;;;6.75;67.57;99794.75;10291937;23;20050;-85
2023/11/25 10:26:37;;;;;;;7.97;0.88;;;;;;;6.85;67.66;99799.09;10309198;28;20594;-82
2023/11/25 10:31:41;;;;;;;7.00;0.60;;;;;;;6.88;66.88;99790.75;10299774;28;20050;-84
2023/11/25 10:36:45;;;;;;;4.63;0.60;;;;;;;6.94;67.30;99779.41;10303173;28;20043;-83
2023/11/25 10:41:50;;;;;;;15.43;0.98;;;;;;;6.93;67.02;99773.22;10307088;28;20073;-83
2023/11/25 10:46:56;;;;;;;8.32;0.70;;;;;;;6.90;67.29;99778.06;10298332;28;20047;-83
2023/11/25 10:52:01;;;;;;;8.27;1.13;;;;;;;6.82;67.09;99770.06;10270164;28;20114;-83
2023/11/25 10:57:05;;;;;;;7.30;1.02;;;;;;;6.82;67.47;99770.06;10282534;28;20042;-82
2023/11/25 11:02:14;;;;;;;5.72;0.50;;;;;;;6.75;67.47;99762.72;10273067;28;20105;-81
2023/11/25 11:07:18;;;;;;;3.63;0.40;;;;;;;6.89;67.42;99745.19;10263272;28;20039;-84
2023/11/25 11:12:27;;;;;;;11.25;0.60;;;;;;;7.14;66.70;99732.63;10280408;28;20054;-83
2023/11/25 11:17:43;;;;;;;7.13;0.80;;;;;;;7.13;66.81;99732.81;10264332;28;20051;-84
2023/11/25 11:22:46;;;;;;;5.82;0.50;;;;;;;7.21;66.30;99724.78;10267592;28;20138;-84
2023/11/25 11:28:11;;;;;;;4.07;0.77;;;;;;;7.24;66.49;99711.06;10259794;28;20106;-84
2023/11/25 11:33:14;;;;;;;2.63;0.75;;;;;;;7.23;66.72;99714.75;10255968;28;20051;-76
2023/11/25 11:38:28;;;;;;;5.60;0.50;;;;;;;7.31;66.46;99705.88;10264236;28;20142;-79
2023/11/25 11:43:30;;;;;;;3.20;0.50;;;;;;;7.26;66.86;99703.69;10259362;28;20063;-80
2023/11/25 11:48:32;;;;;;;5.65;0.50;;;;;;;7.24;67.19;99707.56;10250647;28;20055;-73
2023/11/25 11:53:33;;;;;;;5.40;0.47;;;;;;;7.32;67.53;99697.66;10259945;28;20543;-75
2023/11/25 11:58:35;;;;;;;3.13;0.65;;;;;;;7.50;67.08;99707.31;10266571;28;20050;-80
2023/11/25 12:03:37;;;;;;;2.80;0.38;;;;;;;7.46;67.57;99703.31;10240921;28;20413;-79
2023/11/25 12:08:40;;;;;;;2.25;0.40;;;;;;;7.42;67.63;99700.13;10229006;28;20066;-79
2023/11/25 12:13:42;;;;;;;4.13;0.40;;;;;;;7.56;67.78;99687.91;10237793;28;20050;-80
2023/11/25 12:18:44;;;;;;;1.35;0.52;;;;;;;7.48;67.49;99685.25;10260364;28;20054;-80
2023/11/25 12:23:47;;;;;;;2.63;0.40;;;;;;;7.37;67.83;99674.94;10262078;28;20047;-80
2023/11/25 12:28:52;;;;;;;1.73;0.27;;;;;;;7.47;67.79;99676.41;10232992;28;20690;-80
2023/11/25 12:33:57;;;;;;;1.48;0.40;;;;;;;7.68;67.27;99667.81;10245907;28;20047;-80
2023/11/25 12:38:59;;;;;;;3.78;0.30;;;;;;;7.67;67.29;99674.16;10251398;28;20055;-80
2023/11/25 12:44:09;;;;;;;1.75;0.55;;;;;;;7.55;68.12;99672.88;10237419;28;20059;-80
2023/11/25 12:49:19;;;;;;;1.38;0.40;;;;;;;7.49;68.14;99657.53;10248580;28;20129;-81
2023/11/25 12:54:21;;;;;;;2.70;0.55;;;;;;;7.59;67.51;99660.81;10242542;28;20534;-79
2023/11/25 12:59:29;;;;;;;1.90;0.32;;;;;;;7.70;67.39;99660.44;10237739;28;20059;-80
2023/11/25 13:04:30;;;;;;;0.47;0.30;;;;;;;7.85;67.21;99640.97;10255137;28;20169;-80
2023/11/25 13:09:33;;;;;;;1.55;0.30;;;;;;;8.05;66.78;99649.38;10266354;28;20058;-80
2023/11/25 13:14:35;;;;;;;2.85;0.45;;;;;;;8.23;66.61;99635.69;10296550;28;20051;-80
2023/11/25 13:19:43;;;;;;;1.85;0.40;;;;;;;8.23;66.05;99635.69;10296501;28;20043;-82
2023/11/25 13:24:45;;;;;;;0.95;0.50;;;;;;;8.05;66.16;99628.78;10257517;28;20114;-80
2023/11/25 13:29:47;;;;;;;4.68;0.50;;;;;;;8.32;65.67;99623.91;10290139;28;20050;-80
2023/11/25 13:34:50;;;;;;;7.45;1.00;;;;;;;8.28;65.07;99622.63;10294916;28;20528;-81
2023/11/25 13:39:55;;;;;;;2.58;0.65;;;;;;;8.22;64.92;99617.97;10294834;28;20058;-80
2023/11/25 13:44:57;;;;;;;4.75;0.73;;;;;;;8.12;65.05;99629.75;10308335;28;20078;-80
2023/11/25 13:50:00;;;;;;;5.13;0.60;;;;;;;8.11;64.36;99622.72;10276574;28;20050;-80
2023/11/25 13:55:12;;;;;;;3.58;0.70;;;;;;;8.13;64.32;99625.22;10277816;28;20071;-80
2023/11/25 14:00:15;;;;;;;1.98;0.55;;;;;;;8.19;64.14;99624.50;10262280;28;20090;-80
2023/11/25 14:05:18;;;;;;;1.95;0.40;;;;;;;8.29;63.49;99605.53;10269227;28;20055;-82
2023/11/25 14:10:20;;;;;;;1.20;0.40;;;;;;;8.20;63.83;99601.25;10251633;28;20419;-79
2023/11/25 14:15:22;;;;;;;1.75;0.52;;;;;;;8.16;63.92;99608.00;10265867;28;20347;-78
2023/11/25 14:20:24;;;;;;;0.30;0.20;;;;;;;8.03;64.29;99598.69;10266093;28;20146;-77
2023/11/25 14:25:26;;;;;;;1.27;0.50;;;;;;;8.04;64.85;99604.91;10264499;28;20047;-79
2023/11/25 14:30:30;;;;;;;1.15;0.40;;;;;;;8.01;63.96;99605.25;10268575;28;20138;-78
2023/11/25 14:35:32;;;;;;;1.55;0.40;;;;;;;8.10;63.86;99598.81;10241167;28;20047;-78
2023/11/25 14:40:38;;;;;;;0.70;0.30;;;;;;;8.27;63.95;99607.56;10281190;28;20077;-78
2023/11/25 14:45:40;;;;;;;1.30;0.30;;;;;;;8.07;63.80;99610.69;10251834;28;20043;-78
2023/11/25 14:50:42;;;;;;;2.58;0.30;;;;;;;8.05;64.11;99602.03;10258501;28;20128;-78
2023/11/25 14:55:46;;;;;;;4.53;0.30;;;;;;;7.81;64.74;99605.69;10228987;28;20560;-78
2023/11/25 15:00:48;;;;;;;2.63;0.32;;;;;;;7.77;64.77;99601.72;10251945;28;20062;-78
2023/11/25 15:05:50;;;;;;;0.50;0.20;;;;;;;7.66;64.61;99594.94;10272802;28;20047;-78
2023/11/25 15:10:58;;;;;;;0.75;0.30;;;;;;;7.60;64.46;99600.94;10263752;28;20050;-76
2023/11/25 15:16:03;;;;;;;2.95;0.30;;;;;;;7.53;65.33;99592.81;10223808;28;20139;-78
2023/11/25 15:21:05;;;;;;;1.10;0.30;;;;;;;7.52;65.26;99593.84;10235595;28;20074;-78
2023/11/25 15:26:07;;;;;;;2.30;0.30;;;;;;;7.52;65.60;99595.66;10252664;28;20062;-79
2023/11/25 15:31:13;;;;;;;2.42;0.30;;;;;;;7.45;65.65;99590.19;10272610;28;20074;-78
2023/11/25 15:36:15;;;;;;;1.45;0.47;;;;;;;7.31;65.78;99581.06;10249011;28;20050;-77
2023/11/25 15:41:17;;;;;;;3.47;0.60;;;;;;;7.20;66.34;99592.13;10234898;28;20585;-77
2023/11/25 15:46:18;;;;;;;3.03;0.50;;;;;;;7.17;66.19;99605.84;10236270;28;20506;-78
2023/11/25 15:51:21;;;;;;;1.85;0.30;;;;;;;7.20;66.48;99610.81;10237489;28;20055;-77
2023/11/25 15:56:23;;;;;;;1.67;0.50;;;;;;;7.21;65.92;99619.66;10273013;28;20146;-78
2023/11/25 16:01:25;;;;;;;0.55;0.20;;;;;;;7.21;65.93;99623.19;10270852;28;20042;-77
2023/11/25 16:06:27;;;;;;;1.23;0.10;;;;;;;7.10;66.69;99627.06;10269304;28;20059;-77
2023/11/25 16:11:28;;;;;;;2.65;0.63;;;;;;;7.14;66.54;99631.06;10248300;28;20069;-76
2023/11/25 16:16:31;;;;;;;0.40;0.20;;;;;;;7.07;66.26;99632.75;10272419;28;20046;-77
2023/11/25 16:21:36;;;;;;;0.40;0.10;;;;;;;7.05;66.73;99636.59;10266288;28;20061;-77
2023/11/25 16:26:38;;;;;;;0.57;0.20;;;;;;;7.05;66.45;99620.56;10254216;28;20594;-82
2023/11/25 16:31:39;;;;;;;0.43;0.10;;;;;;;7.08;66.64;99633.59;10258727;28;20062;-77
2023/11/25 16:36:41;;;;;;;0.47;0.10;;;;;;;7.01;66.89;99635.25;10243067;28;20051;-78
2023/11/25 16:41:49;;;;;;;0.25;0.10;;;;;;;7.02;65.94;99650.31;10263711;28;20150;-78
2023/11/25 16:46:50;;;;;;;2.28;0.25;;;;;;;6.98;66.83;99635.63;10276075;28;20554;-77
2023/11/25 16:51:52;;;;;;;0.60;0.30;;;;;;;7.03;66.74;99630.59;10266934;28;20102;-79
2023/11/25 16:56:54;;;;;;;1.30;0.20;;;;;;;7.04;66.31;99634.94;10267429;28;20510;-79
2023/11/25 17:01:57;;;;;;;2.13;0.20;;;;;;;6.97;66.65;99639.28;10258740;28;20051;-78
2023/11/25 17:07:01;;;;;;;1.30;0.22;;;;;;;7.07;66.60;99646.13;10278390;28;20443;-79
2023/11/25 17:12:03;;;;;;;1.00;0.40;;;;;;;7.05;66.69;99653.47;10251932;28;20085;-78
2023/11/25 17:17:08;;;;;;;1.60;0.85;;;;;;;7.12;67.05;99669.66;10244354;28;20490;-79
2023/11/25 17:22:10;;;;;;;3.30;0.70;;;;;;;7.08;66.79;99671.00;10246028;28;20581;-78
2023/11/25 17:27:11;;;;;;;2.75;0.80;;;;;;;7.25;67.26;99663.78;10268268;28;20054;-78
2023/11/25 17:32:13;;;;;;;0.50;0.40;;;;;;;7.37;66.56;99661.59;10249841;28;20137;-78
2023/11/25 17:37:16;;;;;;;1.42;0.65;;;;;;;7.49;66.24;99666.38;10263669;28;20055;-78
2023/11/25 17:42:18;;;;;;;1.90;0.75;;;;;;;7.55;66.23;99673.69;10265004;28;20062;-77
2023/11/25 17:47:19;;;;;;;4.15;0.70;;;;;;;7.54;65.47;99689.91;10273170;28;20063;-78
2023/11/25 17:52:22;;;;;;;2.88;0.50;;;;;;;7.47;66.39;99679.06;10277530;28;20047;-77
2023/11/25 17:57:23;;;;;;;3.83;0.60;;;;;;;7.38;66.51;99690.81;10269545;28;20133;-78
2023/11/25 18:02:25;;;;;;;1.45;1.02;;;;;;;7.08;67.94;99700.41;10268280;28;20102;-79
2023/11/25 18:07:27;;;;;;;2.35;0.30;;;;;;;6.91;68.03;99708.44;10244105;28;20047;-79
2023/11/25 18:12:29;;;;;;;0.20;0.20;;;;;;;6.82;67.60;99714.78;10274347;28;20070;-79
2023/11/25 18:17:31;;;;;;;0.82;0.20;;;;;;;6.85;67.51;99743.84;10255601;28;20340;-79
2023/11/25 18:22:33;;;;;;;2.15;0.20;;;;;;;6.90;67.38;99744.16;10264085;28;20113;-80
2023/11/25 18:27:35;;;;;;;0.40;0.20;;;;;;;6.92;67.35;99755.50;10250107;28;20430;-80
2023/11/25 18:32:36;;;;;;;0.40;0.20;;;;;;;6.96;66.87;99761.38;10251457;28;20478;-82
2023/11/25 18:37:38;;;;;;;0.77;0.20;;;;;;;6.89;67.09;99755.00;10251860;28;20055;-79
2023/11/25 18:42:41;;;;;;;0.93;0.20;;;;;;;6.84;66.71;99760.03;10252160;28;20047;-79
2023/11/25 18:47:42;;;;;;;0.50;0.30;;;;;;;6.82;67.48;99767.38;10232940;28;20074;-78
2023/11/25 18:52:44;;;;;;;2.15;0.28;;;;;;;6.84;66.94;99765.38;10255701;28;20059;-78
2023/11/25 18:57:46;;;;;;;2.60;0.30;;;;;;;6.89;66.34;99760.34;10251894;28;20049;-78
2023/11/25 19:02:47;;;;;;;1.58;0.30;;;;;;;6.94;66.37;99766.03;10270332;28;20394;-77
2023/11/25 19:07:50;;;;;;;0.32;0.20;;;;;;;6.86;66.58;99774.06;10248867;28;20047;-79
2023/11/25 19:12:51;;;;;;;0.98;0.28;;;;;;;6.86;66.88;99774.88;10239129;28;20073;-79
2023/11/25 19:17:53;;;;;;;4.93;1.17;;;;;;;6.94;66.68;99788.25;10269051;28;20062;-79
2023/11/25 19:22:54;;;;;;;4.28;0.80;;;;;;;6.91;66.47;99809.09;10244582;28;20061;-79
2023/11/25 19:27:56;;;;;;;2.40;0.38;;;;;;;6.97;66.14;99813.81;10247356;28;20130;-80
2023/11/25 19:32:58;;;;;;;1.33;0.93;;;;;;;6.95;66.04;99843.38;10235487;28;20051;-79
2023/11/25 19:38:00;;;;;;;1.77;0.30;;;;;;;6.89;66.61;99861.88;10251668;28;20085;-79
2023/11/25 19:43:02;;;;;;;3.30;0.22;;;;;;;6.95;66.87;99872.75;10256025;28;20506;-78
2023/11/25 19:48:04;;;;;;;3.33;0.30;;;;;;;6.98;66.72;99876.94;10259257;28;20130;-78
2023/11/25 19:53:07;;;;;;;1.23;0.60;;;;;;;7.08;65.56;99879.44;10270372;28;20054;-79
2023/11/25 19:58:09;;;;;;;0.90;0.32;;;;;;;6.97;66.38;99880.63;10243603;28;20051;-79
2023/11/25 20:03:11;;;;;;;2.47;0.30;;;;;;;6.90;66.68;99895.63;10273002;28;20051;-79
2023/11/25 20:08:13;;;;;;;2.17;0.30;;;;;;;6.83;66.89;99907.94;10268557;28;20058;-78
2023/11/25 20:13:15;;;;;;;1.85;0.30;;;;;;;6.58;67.05;99902.53;10281744;28;20035;-77
2023/11/25 20:18:18;;;;;;;2.95;0.45;;;;;;;6.45;66.96;99910.97;10255131;28;20047;-78
2023/11/25 20:23:19;;;;;;;2.42;0.20;;;;;;;6.28;66.79;99915.44;10291647;28;20047;-78
2023/11/25 20:28:22;;;;;;;0.85;0.35;;;;;;;6.14;67.29;99916.84;10235311;28;20410;-79
2023/11/25 20:33:24;;;;;;;2.70;0.40;;;;;;;6.03;67.50;99934.94;10250257;28;20137;-80
2023/11/25 20:38:26;;;;;;;2.15;0.30;;;;;;;5.93;67.43;99940.34;10244850;28;20055;-78
2023/11/25 20:43:27;;;;;;;6.35;1.38;;;;;;;5.83;67.17;99952.97;10253044;28;20462;-80
2023/11/25 20:48:29;;;;;;;1.08;0.20;;;;;;;5.72;67.75;99962.03;10246730;28;20066;-77
2023/11/25 20:53:31;;;;;;;2.90;0.50;;;;;;;5.66;67.54;99966.13;10264017;28;20114;-76
2023/11/25 20:58:33;;;;;;;2.38;1.05;;;;;;;5.59;67.27;99970.44;10263111;28;20078;-77
2023/11/25 21:03:35;;;;;;;2.30;0.40;;;;;;;5.52;67.42;99975.53;10233058;28;20058;-77
2023/11/25 21:08:36;;;;;;;2.25;0.52;;;;;;;5.47;67.72;99982.28;10241290;28;20050;-77
2023/11/25 21:13:38;;;;;;;2.55;0.70;;;;;;;5.41;67.68;99985.56;10266297;28;20532;-77
2023/11/25 21:18:40;;;;;;;3.53;0.40;;;;;;;5.30;67.83;99989.31;10231569;28;20042;-77
2023/11/25 21:23:41;;;;;;;1.25;0.50;;;;;;;5.23;68.46;99990.88;10238411;28;20057;-77
2023/11/25 21:28:43;;;;;;;1.23;0.40;;;;;;;5.17;67.92;100000.31;10247528;28;20137;-77
2023/11/25 21:33:45;;;;;;;2.25;0.60;;;;;;;5.12;67.88;100005.28;10265566;28;20047;-77
2023/11/25 21:38:46;;;;;;;1.23;0.30;;;;;;;5.05;68.25;100006.84;10254257;28;20055;-78
2023/11/25 21:43:48;;;;;;;0.55;0.30;;;;;;;5.04;68.63;100010.50;10253181;28;20380;-77
2023/11/25 21:48:50;;;;;;;0.77;0.45;;;;;;;5.02;67.91;100020.47;10247103;28;20058;-78
2023/11/25 21:53:51;;;;;;;3.03;0.55;;;;;;;5.04;68.05;100029.16;10274885;28;20521;-78
2023/11/25 21:58:53;;;;;;;0.88;0.30;;;;;;;4.99;67.76;100026.91;10247366;28;20126;-78
2023/11/25 22:03:55;;;;;;;3.72;0.50;;;;;;;4.97;67.98;100040.38;10277438;28;20055;-77
2023/11/25 22:08:57;;;;;;;2.10;0.30;;;;;;;4.92;68.40;100037.34;10252326;28;20494;-77
2023/11/25 22:14:00;;;;;;;1.27;0.28;;;;;;;4.91;68.42;100040.13;10269832;28;20451;-78
2023/11/25 22:19:01;;;;;;;2.55;0.30;;;;;;;4.89;68.02;100048.25;10265431;28;20054;-77
2023/11/25 22:24:03;;;;;;;1.88;0.40;;;;;;;4.87;67.77;100049.41;10240878;28;20150;-77
2023/11/25 22:29:05;;;;;;;0.80;0.40;;;;;;;4.84;68.23;100042.56;10258920;28;20046;-76
2023/11/25 22:34:07;;;;;;;1.33;0.45;;;;;;;4.84;67.73;100045.22;10262283;28;20134;-77
2023/11/25 22:39:09;;;;;;;5.32;0.63;;;;;;;4.86;67.61;100048.56;10250719;28;20055;-77
2023/11/25 22:44:10;;;;;;;1.25;0.70;;;;;;;4.86;68.12;100042.38;10243151;28;20055;-77
2023/11/25 22:49:12;;;;;;;3.80;0.52;;;;;;;4.82;67.35;100055.19;10273460;28;20047;-77
2023/11/25 22:54:17;;;;;;;4.60;0.70;;;;;;;4.74;67.98;100055.06;10253632;28;20585;-77
2023/11/25 22:59:18;;;;;;;5.85;1.20;;;;;;;4.65;67.74;100077.22;10264838;28;20126;-77
2023/11/25 23:04:20;;;;;;;5.72;0.82;;;;;;;4.59;68.10;100088.47;10241112;28;20058;-76
2023/11/25 23:09:22;;;;;;;3.72;0.50;;;;;;;4.48;67.92;100090.31;10242610;28;20051;-76
2023/11/25 23:14:24;;;;;;;2.47;0.43;;;;;;;4.44;67.64;100099.53;10250063;28;20098;-78
2023/11/25 23:19:25;;;;;;;2.80;0.47;;;;;;;4.43;68.08;100099.69;10250157;28;20105;-78
2023/11/25 23:24:27;;;;;;;4.32;0.75;;;;;;;4.52;67.52;100101.47;10262614;28;20070;-78
2023/11/25 23:29:29;;;;;;;5.25;0.73;;;;;;;4.54;67.14;100108.38;10246806;28;20050;-78
2023/11/25 23:34:32;;;;;;;2.00;0.70;;;;;;;4.56;67.72;100108.19;10268690;28;20055;-77
2023/11/25 23:39:33;;;;;;;3.00;0.70;;;;;;;4.63;67.06;100111.97;10248367;28;20047;-77